Time;durP1;ratioP1;P1;durP2;ratioP2;P2;SDS_P1;SDS_P2;PMS_P1;PMS_P2;Temp;Humidity;BMP_temperature;BMP_pressure;BME280_temperature;BME280_humidity;BME280_pressure;Samples;Min_cycle;Max_cycle;Signal;HPM_P1;HPM_P2
2023/06/14 00:00:48;;;;;;;2.28;2.08;;;;;;;;;;5227223;22;20026;-61
2023/06/14 00:03:09;;;;;;;1.42;1.42;;;;;;;;;;5214146;22;20023;-61
2023/06/14 00:05:32;;;;;;;1.90;1.55;;;;;;;;;;5227120;22;20207;-61
2023/06/14 00:07:53;;;;;;;1.50;1.50;;;;;;;;;;5227309;22;20205;-61
2023/06/14 00:10:14;;;;;;;2.80;1.48;;;;;;;;;;5227290;22;20096;-61
2023/06/14 00:12:36;;;;;;;1.60;1.50;;;;;;;;;;5227218;22;20187;-61
2023/06/14 00:14:56;;;;;;;1.85;1.75;;;;;;;;;;5227155;22;20026;-61
2023/06/14 00:17:16;;;;;;;1.70;1.70;;;;;;;;;;5227124;22;20023;-61
2023/06/14 00:19:38;;;;;;;1.70;1.60;;;;;;;;;;5227163;22;20057;-61
2023/06/14 00:21:58;;;;;;;5.28;2.03;;;;;;;;;;5227129;22;20041;-61
2023/06/14 00:24:20;;;;;;;2.05;1.52;;;;;;;;;;5227128;22;20214;-61
2023/06/14 00:26:40;;;;;;;1.95;1.85;;;;;;;;;;5227047;22;20065;-61
2023/06/14 00:29:00;;;;;;;1.45;1.35;;;;;;;;;;5227111;22;20030;-61
2023/06/14 00:31:21;;;;;;;1.45;1.45;;;;;;;;;;5227213;22;20026;-61
2023/06/14 00:33:42;;;;;;;1.98;1.88;;;;;;;;;;5227188;22;20022;-61
2023/06/14 00:36:02;;;;;;;7.43;1.98;;;;;;;;;;5227105;22;20023;-61
2023/06/14 00:38:22;;;;;;;1.85;1.75;;;;;;;;;;5227066;22;20026;-61
2023/06/14 00:40:42;;;;;;;2.03;1.95;;;;;;;;;;5227087;22;20053;-61
2023/06/14 00:43:03;;;;;;;1.88;1.77;;;;;;;;;;5227049;22;20026;-61
2023/06/14 00:45:23;;;;;;;1.55;1.50;;;;;;;;;;5227030;22;20088;-61
2023/06/14 00:47:44;;;;;;;2.10;1.80;;;;;;;;;;5227145;22;20025;-61
2023/06/14 00:50:07;;;;;;;1.85;1.85;;;;;;;;;;5227138;22;20022;-61
2023/06/14 00:52:27;;;;;;;1.70;1.60;;;;;;;;;;5226948;22;20026;-61
2023/06/14 00:54:47;;;;;;;2.45;2.42;;;;;;;;;;5226994;22;20025;-61
2023/06/14 00:57:11;;;;;;;2.88;2.33;;;;;;;;;;5226955;22;20023;-61
2023/06/14 00:59:32;;;;;;;1.92;1.92;;;;;;;;;;5226931;22;20053;-61
2023/06/14 01:01:52;;;;;;;1.85;1.85;;;;;;;;;;5215803;22;20035;-65
2023/06/14 01:04:13;;;;;;;1.80;1.70;;;;;;;;;;5174327;23;20043;-65
2023/06/14 01:06:50;;;;;;;2.20;2.17;;;;;;;;;;5175200;23;20381;-65
2023/06/14 01:09:10;;;;;;;2.17;2.03;;;;;;;;;;5152708;23;20050;-65
2023/06/14 01:11:33;;;;;;;2.13;1.90;;;;;;;;;;5175285;23;20057;-65
2023/06/14 01:13:54;;;;;;;2.00;1.92;;;;;;;;;;5175338;23;20215;-65
2023/06/14 01:16:15;;;;;;;2.53;2.33;;;;;;;;;;5175202;23;20101;-65
2023/06/14 01:18:35;;;;;;;2.20;2.10;;;;;;;;;;5175167;23;20042;-65
2023/06/14 01:20:56;;;;;;;1.75;1.75;;;;;;;;;;5175252;23;20027;-65
2023/06/14 01:23:20;;;;;;;2.33;2.00;;;;;;;;;;5175147;23;20075;-65
2023/06/14 01:25:44;;;;;;;3.35;1.80;;;;;;;;;;5175029;23;20023;-65
2023/06/14 01:28:10;;;;;;;1.98;1.98;;;;;;;;;;5175132;23;20027;-66
2023/06/14 01:30:33;;;;;;;1.83;1.73;;;;;;;;;;5175784;23;20031;-65
2023/06/14 01:32:54;;;;;;;2.05;2.05;;;;;;;;;;5176207;23;20119;-65
2023/06/14 01:35:15;;;;;;;2.63;2.42;;;;;;;;;;5176126;23;20026;-65
2023/06/14 01:37:36;;;;;;;2.10;2.10;;;;;;;;;;5176293;23;20024;-65
2023/06/14 01:39:56;;;;;;;1.98;1.88;;;;;;;;;;5182446;22;20026;-65
2023/06/14 01:42:18;;;;;;;3.45;2.15;;;;;;;;;;5201425;22;20023;-65
2023/06/14 01:44:39;;;;;;;2.90;1.88;;;;;;;;;;5201407;22;20026;-65
2023/06/14 01:46:59;;;;;;;1.92;1.80;;;;;;;;;;5201559;22;20087;-65
2023/06/14 01:49:21;;;;;;;2.30;2.08;;;;;;;;;;5201436;22;20058;-65
2023/06/14 01:51:41;;;;;;;3.70;2.17;;;;;;;;;;5201464;22;20103;-65
2023/06/14 01:54:01;;;;;;;3.83;2.13;;;;;;;;;;5201527;22;20026;-65
2023/06/14 01:56:21;;;;;;;6.18;1.73;;;;;;;;;;5201399;22;20058;-65
2023/06/14 01:58:41;;;;;;;1.77;1.63;;;;;;;;;;5201424;22;20342;-65
2023/06/14 02:01:02;;;;;;;2.00;1.98;;;;;;;;;;5201532;22;20057;-65
2023/06/14 02:03:23;;;;;;;2.95;2.22;;;;;;;;;;5201455;22;20027;-65
2023/06/14 02:05:43;;;;;;;1.88;1.88;;;;;;;;;;5201260;22;20184;-65
2023/06/14 02:08:03;;;;;;;1.98;1.88;;;;;;;;;;5201319;22;20022;-65
2023/06/14 02:10:24;;;;;;;2.00;2.00;;;;;;;;;;5201366;22;20225;-65
2023/06/14 02:12:45;;;;;;;3.30;1.70;;;;;;;;;;5201485;22;20023;-65
2023/06/14 02:15:06;;;;;;;1.50;1.50;;;;;;;;;;5201361;22;20245;-66
2023/06/14 02:17:27;;;;;;;5.47;2.30;;;;;;;;;;5201375;22;20030;-65
2023/06/14 02:19:47;;;;;;;1.45;1.45;;;;;;;;;;5201355;22;20126;-65
2023/06/14 02:22:08;;;;;;;3.95;2.00;;;;;;;;;;5201389;22;20026;-65
2023/06/14 02:24:28;;;;;;;5.30;1.73;;;;;;;;;;5201440;22;20034;-65
2023/06/14 02:26:49;;;;;;;2.10;2.10;;;;;;;;;;5201775;22;20062;-66
2023/06/14 02:29:10;;;;;;;1.92;1.85;;;;;;;;;;5201329;22;20023;-66
2023/06/14 02:31:31;;;;;;;2.42;2.00;;;;;;;;;;5201389;22;20050;-65
2023/06/14 02:33:51;;;;;;;1.92;1.92;;;;;;;;;;5201314;22;20031;-65
2023/06/14 02:36:12;;;;;;;2.30;2.20;;;;;;;;;;5201290;22;20080;-66
2023/06/14 02:38:32;;;;;;;2.03;1.85;;;;;;;;;;5201283;22;20341;-66
2023/06/14 02:40:52;;;;;;;3.25;2.63;;;;;;;;;;5201043;22;20236;-65
2023/06/14 02:43:12;;;;;;;2.00;1.70;;;;;;;;;;5201477;22;20211;-65
2023/06/14 02:45:33;;;;;;;3.85;1.85;;;;;;;;;;5201822;22;20023;-65
2023/06/14 02:47:53;;;;;;;1.60;1.50;;;;;;;;;;5201915;22;20082;-65
2023/06/14 02:50:13;;;;;;;1.52;1.40;;;;;;;;;;5201988;22;20026;-65
2023/06/14 02:52:34;;;;;;;1.52;1.52;;;;;;;;;;5201888;22;20380;-65
2023/06/14 02:54:55;;;;;;;1.70;1.20;;;;;;;;;;5201890;22;20034;-65
2023/06/14 02:57:15;;;;;;;1.73;1.05;;;;;;;;;;5201891;22;20077;-65
2023/06/14 02:59:36;;;;;;;1.75;1.33;;;;;;;;;;5201887;22;20046;-65
2023/06/14 03:01:56;;;;;;;1.33;1.33;;;;;;;;;;5201923;22;20269;-65
2023/06/14 03:04:16;;;;;;;1.90;1.80;;;;;;;;;;5201801;22;20368;-65
2023/06/14 03:06:37;;;;;;;2.33;2.03;;;;;;;;;;5201685;22;20105;-65
2023/06/14 03:09:04;;;;;;;1.98;1.98;;;;;;;;;;5201817;22;20022;-66
2023/06/14 03:11:24;;;;;;;11.65;3.50;;;;;;;;;;5201859;22;20065;-66
2023/06/14 03:13:45;;;;;;;2.08;1.83;;;;;;;;;;5201790;22;20022;-66
2023/06/14 03:16:07;;;;;;;1.88;1.77;;;;;;;;;;5201733;22;20058;-66
2023/06/14 03:18:27;;;;;;;2.10;2.00;;;;;;;;;;5201841;22;20043;-66
2023/06/14 03:20:47;;;;;;;3.45;1.63;;;;;;;;;;5201751;22;20026;-66
2023/06/14 03:23:08;;;;;;;2.60;1.48;;;;;;;;;;5201753;22;20368;-66
2023/06/14 03:25:29;;;;;;;2.63;2.10;;;;;;;;;;5201701;22;20023;-65
2023/06/14 03:27:49;;;;;;;5.20;2.25;;;;;;;;;;5210301;22;20026;-66
2023/06/14 03:30:10;;;;;;;2.03;1.85;;;;;;;;;;5201694;22;20217;-66
2023/06/14 03:32:33;;;;;;;3.05;1.98;;;;;;;;;;5201821;22;20026;-65
2023/06/14 03:34:53;;;;;;;1.73;1.73;;;;;;;;;;5201755;22;20023;-66
2023/06/14 03:37:14;;;;;;;1.75;1.65;;;;;;;;;;5201633;22;20023;-66
2023/06/14 03:39:34;;;;;;;1.42;1.40;;;;;;;;;;5210064;22;20034;-66
2023/06/14 03:41:54;;;;;;;1.20;1.20;;;;;;;;;;5201802;22;20022;-66
2023/06/14 03:44:17;;;;;;;2.30;1.40;;;;;;;;;;5201659;22;20031;-66
2023/06/14 03:46:37;;;;;;;4.18;1.65;;;;;;;;;;5201630;22;20023;-66
2023/06/14 03:48:58;;;;;;;2.25;1.50;;;;;;;;;;5201792;22;20069;-66
2023/06/14 03:51:18;;;;;;;2.38;1.40;;;;;;;;;;5201641;22;20034;-66
2023/06/14 03:53:38;;;;;;;2.97;1.20;;;;;;;;;;5201175;22;20034;-66
2023/06/14 03:56:18;;;;;;;1.70;1.50;;;;;;;;;;5210231;22;20046;-66
2023/06/14 03:58:39;;;;;;;1.63;1.60;;;;;;;;;;5201681;22;20023;-66
2023/06/14 04:01:00;;;;;;;1.60;1.20;;;;;;;;;;5210128;22;20050;-66
2023/06/14 04:03:28;;;;;;;2.50;2.05;;;;;;;;;;5201585;22;20074;-66
2023/06/14 04:05:49;;;;;;;4.22;2.83;;;;;;;;;;5201494;22;20022;-65
2023/06/14 04:08:10;;;;;;;8.15;2.65;;;;;;;;;;5178955;22;20027;-66
2023/06/14 04:10:30;;;;;;;2.08;1.98;;;;;;;;;;5201997;22;20309;-65
2023/06/14 04:12:51;;;;;;;2.80;1.88;;;;;;;;;;5201573;22;20042;-65
2023/06/14 04:15:11;;;;;;;1.90;1.80;;;;;;;;;;5201695;22;20022;-64
2023/06/14 04:17:35;;;;;;;12.65;4.00;;;;;;;;;;5210103;22;20276;-65
2023/06/14 04:19:58;;;;;;;3.80;1.77;;;;;;;;;;5201515;22;20402;-65
2023/06/14 04:22:18;;;;;;;3.90;1.85;;;;;;;;;;5201480;22;20027;-65
2023/06/14 04:24:39;;;;;;;4.60;1.77;;;;;;;;;;5201513;22;20023;-65
2023/06/14 04:27:01;;;;;;;3.30;2.22;;;;;;;;;;5201335;22;20222;-65
2023/06/14 04:29:23;;;;;;;2.08;1.80;;;;;;;;;;5201500;22;20039;-65
2023/06/14 04:31:44;;;;;;;2.28;1.70;;;;;;;;;;5201612;22;20337;-65
2023/06/14 04:34:05;;;;;;;1.70;1.48;;;;;;;;;;5201517;22;20023;-65
2023/06/14 04:36:27;;;;;;;1.80;1.80;;;;;;;;;;5201536;22;20021;-65
2023/06/14 04:38:49;;;;;;;2.00;1.95;;;;;;;;;;5201536;22;20091;-65
2023/06/14 04:41:11;;;;;;;1.80;1.70;;;;;;;;;;5201344;22;20058;-65
2023/06/14 04:43:37;;;;;;;2.40;1.40;;;;;;;;;;5201395;22;20034;-65
2023/06/14 04:45:58;;;;;;;2.13;1.90;;;;;;;;;;5201281;22;20022;-65
2023/06/14 04:48:20;;;;;;;2.45;1.50;;;;;;;;;;5201909;22;20026;-65
2023/06/14 04:50:41;;;;;;;4.63;2.67;;;;;;;;;;5201429;22;20023;-65
2023/06/14 04:53:01;;;;;;;3.38;1.88;;;;;;;;;;5201361;22;20353;-65
2023/06/14 04:55:21;;;;;;;2.63;2.53;;;;;;;;;;5201422;22;20074;-65
2023/06/14 04:57:42;;;;;;;2.83;2.08;;;;;;;;;;5201307;22;20245;-65
2023/06/14 05:00:05;;;;;;;4.30;1.70;;;;;;;;;;5201292;22;20022;-65
2023/06/14 05:02:25;;;;;;;5.85;2.65;;;;;;;;;;5201341;22;20026;-65
2023/06/14 05:04:47;;;;;;;2.25;2.05;;;;;;;;;;5201335;22;20067;-65
2023/06/14 05:07:09;;;;;;;4.90;3.03;;;;;;;;;;5201220;22;20027;-65
2023/06/14 05:09:29;;;;;;;9.20;2.45;;;;;;;;;;5201248;22;20022;-65
2023/06/14 05:11:50;;;;;;;4.72;1.98;;;;;;;;;;5201333;22;20025;-65
2023/06/14 05:14:11;;;;;;;4.75;1.60;;;;;;;;;;5201213;22;20022;-65
2023/06/14 05:16:32;;;;;;;2.20;1.92;;;;;;;;;;5201303;22;20068;-65
2023/06/14 05:18:52;;;;;;;3.17;1.77;;;;;;;;;;5178708;22;20026;-64
2023/06/14 05:21:13;;;;;;;5.97;2.33;;;;;;;;;;5201164;22;20026;-66
2023/06/14 05:23:33;;;;;;;2.30;1.60;;;;;;;;;;5201108;22;20330;-66
2023/06/14 05:25:53;;;;;;;1.88;1.83;;;;;;;;;;5201019;22;20026;-66
2023/06/14 05:28:13;;;;;;;1.58;1.48;;;;;;;;;;5201145;22;20260;-66
2023/06/14 05:30:33;;;;;;;2.25;2.05;;;;;;;;;;5200985;22;20222;-66
2023/06/14 05:32:54;;;;;;;3.97;1.75;;;;;;;;;;5201056;22;20326;-66
2023/06/14 05:35:15;;;;;;;2.35;2.08;;;;;;;;;;5201074;22;20027;-66
2023/06/14 05:37:35;;;;;;;2.33;2.00;;;;;;;;;;5201039;22;20070;-66
2023/06/14 05:39:56;;;;;;;1.60;1.50;;;;;;;;;;5200956;22;20035;-67
2023/06/14 05:42:16;;;;;;;3.33;2.28;;;;;;;;;;5201101;22;20027;-67
2023/06/14 05:44:36;;;;;;;2.75;1.90;;;;;;;;;;5200972;22;20046;-66
2023/06/14 05:46:56;;;;;;;1.77;1.45;;;;;;;;;;5200883;22;20100;-67
2023/06/14 05:49:17;;;;;;;1.90;1.60;;;;;;;;;;5201055;22;20345;-66
2023/06/14 05:51:38;;;;;;;2.78;1.88;;;;;;;;;;5200947;22;20086;-66
2023/06/14 05:53:58;;;;;;;1.95;1.73;;;;;;;;;;5200947;22;20050;-67
2023/06/14 05:56:19;;;;;;;4.03;1.88;;;;;;;;;;5200933;22;20031;-67
2023/06/14 05:58:39;;;;;;;1.85;1.63;;;;;;;;;;5200842;22;20054;-67
2023/06/14 06:01:01;;;;;;;1.60;1.58;;;;;;;;;;5200817;22;20022;-66
2023/06/14 06:03:22;;;;;;;2.38;2.28;;;;;;;;;;5200841;22;20061;-66
2023/06/14 06:05:43;;;;;;;1.50;1.50;;;;;;;;;;5200745;22;20203;-66
2023/06/14 06:08:03;;;;;;;2.13;1.95;;;;;;;;;;5200740;22;20270;-66
2023/06/14 06:10:23;;;;;;;1.40;1.40;;;;;;;;;;5200766;22;20342;-67
2023/06/14 06:12:43;;;;;;;1.73;1.73;;;;;;;;;;5200795;22;20027;-67
2023/06/14 06:15:04;;;;;;;3.80;1.67;;;;;;;;;;5200686;22;20026;-67
2023/06/14 06:17:25;;;;;;;1.85;1.83;;;;;;;;;;5201957;22;20023;-67
2023/06/14 06:19:46;;;;;;;2.40;1.65;;;;;;;;;;5202031;22;20076;-67
2023/06/14 06:22:06;;;;;;;1.70;1.60;;;;;;;;;;5201972;22;20072;-67
2023/06/14 06:24:27;;;;;;;2.55;2.08;;;;;;;;;;5201901;22;20035;-68
2023/06/14 06:26:48;;;;;;;1.77;1.58;;;;;;;;;;5201843;22;20031;-69
2023/06/14 06:29:08;;;;;;;1.58;1.20;;;;;;;;;;5201958;22;20054;-69
2023/06/14 06:31:28;;;;;;;1.95;1.52;;;;;;;;;;5201950;22;20026;-69
2023/06/14 06:33:48;;;;;;;1.98;1.67;;;;;;;;;;5201932;22;20022;-69
2023/06/14 06:36:09;;;;;;;1.70;1.70;;;;;;;;;;5201959;22;20050;-69
2023/06/14 06:38:32;;;;;;;2.13;1.50;;;;;;;;;;5201946;22;20054;-69
2023/06/14 06:40:54;;;;;;;1.20;1.20;;;;;;;;;;5201795;22;20022;-68
2023/06/14 06:43:16;;;;;;;1.42;1.40;;;;;;;;;;5202040;22;20043;-69
2023/06/14 06:45:37;;;;;;;1.75;1.40;;;;;;;;;;5201859;22;20023;-68
2023/06/14 06:47:57;;;;;;;1.25;1.25;;;;;;;;;;5201913;22;20328;-67
2023/06/14 06:50:19;;;;;;;2.35;1.20;;;;;;;;;;5202420;22;20022;-68
2023/06/14 06:52:40;;;;;;;1.33;1.33;;;;;;;;;;5201858;22;20245;-68
2023/06/14 06:55:00;;;;;;;1.40;1.35;;;;;;;;;;5201799;22;20057;-67
2023/06/14 06:57:20;;;;;;;1.42;1.33;;;;;;;;;;5201939;22;20214;-67
2023/06/14 06:59:41;;;;;;;5.35;1.20;;;;;;;;;;5201901;22;20027;-67
2023/06/14 07:02:01;;;;;;;2.35;1.10;;;;;;;;;;5201795;22;20211;-66
2023/06/14 07:04:22;;;;;;;2.05;1.05;;;;;;;;;;5201869;22;20026;-66
2023/06/14 07:06:42;;;;;;;1.13;1.00;;;;;;;;;;5201853;22;20038;-66
2023/06/14 07:09:04;;;;;;;1.20;1.00;;;;;;;;;;5201816;22;20339;-66
2023/06/14 07:11:25;;;;;;;4.90;2.10;;;;;;;;;;5201805;22;20062;-65
2023/06/14 07:13:45;;;;;;;1.95;1.10;;;;;;;;;;5201789;22;20023;-64
2023/06/14 07:16:05;;;;;;;3.90;1.08;;;;;;;;;;5201740;22;20210;-64
2023/06/14 07:18:26;;;;;;;2.35;1.20;;;;;;;;;;5201913;22;20027;-65
2023/06/14 07:20:47;;;;;;;1.08;1.08;;;;;;;;;;5201712;22;20026;-65
2023/06/14 07:23:07;;;;;;;2.00;1.00;;;;;;;;;;5202027;22;20086;-65
2023/06/14 07:25:27;;;;;;;1.00;1.00;;;;;;;;;;5201731;22;20023;-65
2023/06/14 07:27:47;;;;;;;1.05;0.93;;;;;;;;;;5201002;22;20337;-65
2023/06/14 07:30:08;;;;;;;1.08;1.08;;;;;;;;;;5201784;22;20023;-64
2023/06/14 07:32:29;;;;;;;1.90;1.80;;;;;;;;;;5201700;22;20026;-65
2023/06/14 07:34:50;;;;;;;1.75;0.95;;;;;;;;;;5201730;22;20023;-65
2023/06/14 07:37:10;;;;;;;1.00;1.00;;;;;;;;;;5201739;22;20022;-65
2023/06/14 07:39:30;;;;;;;1.05;1.05;;;;;;;;;;5201525;22;20026;-65
2023/06/14 07:41:50;;;;;;;0.98;0.95;;;;;;;;;;5201748;22;20022;-65
2023/06/14 07:44:12;;;;;;;1.10;1.00;;;;;;;;;;5201764;22;20031;-65
2023/06/14 07:46:34;;;;;;;0.90;0.90;;;;;;;;;;5201624;22;20374;-64
2023/06/14 07:48:54;;;;;;;2.22;0.98;;;;;;;;;;5178881;22;20046;-64
2023/06/14 07:51:15;;;;;;;0.93;0.93;;;;;;;;;;5201697;22;20103;-64
2023/06/14 07:53:35;;;;;;;1.55;0.95;;;;;;;;;;5201679;22;20061;-64
2023/06/14 07:55:55;;;;;;;2.08;0.95;;;;;;;;;;5201618;22;20360;-65
2023/06/14 07:58:15;;;;;;;1.00;1.00;;;;;;;;;;5178808;22;20054;-64
2023/06/14 08:00:35;;;;;;;3.70;0.80;;;;;;;;;;5201670;22;20026;-65
2023/06/14 08:02:59;;;;;;;2.03;1.67;;;;;;;;;;5201589;22;20088;-65
2023/06/14 08:05:21;;;;;;;2.70;1.10;;;;;;;;;;5201472;22;20023;-64
2023/06/14 08:07:42;;;;;;;0.80;0.80;;;;;;;;;;5201633;22;20334;-65
2023/06/14 08:10:02;;;;;;;0.90;0.90;;;;;;;;;;5201564;22;20034;-65
2023/06/14 08:12:23;;;;;;;1.05;1.00;;;;;;;;;;5201521;22;20023;-65
2023/06/14 08:14:43;;;;;;;2.70;1.23;;;;;;;;;;5201568;22;20072;-65
2023/06/14 08:17:04;;;;;;;1.75;0.90;;;;;;;;;;5201780;22;20356;-65
2023/06/14 08:19:24;;;;;;;1.10;1.00;;;;;;;;;;5201437;22;20065;-65
2023/06/14 08:21:46;;;;;;;1.05;0.90;;;;;;;;;;5201522;22;20026;-65
2023/06/14 08:24:06;;;;;;;0.90;0.90;;;;;;;;;;5201725;22;20057;-65
2023/06/14 08:26:29;;;;;;;1.20;1.10;;;;;;;;;;5201440;22;20042;-65
2023/06/14 08:28:50;;;;;;;1.10;1.00;;;;;;;;;;5201533;22;20022;-65
2023/06/14 08:31:10;;;;;;;1.20;0.90;;;;;;;;;;5201540;22;20042;-65
2023/06/14 08:33:32;;;;;;;1.10;1.10;;;;;;;;;;5201504;22;20022;-65
2023/06/14 08:35:53;;;;;;;1.27;0.90;;;;;;;;;;5201415;22;20057;-65
2023/06/14 08:38:13;;;;;;;1.85;0.90;;;;;;;;;;5201388;22;20348;-65
2023/06/14 08:40:38;;;;;;;1.67;1.00;;;;;;;;;;5201330;22;20023;-65
2023/06/14 08:42:59;;;;;;;1.00;1.00;;;;;;;;;;5201701;22;20058;-65
2023/06/14 08:45:23;;;;;;;0.90;0.90;;;;;;;;;;5201266;22;20022;-65
2023/06/14 08:47:51;;;;;;;2.33;0.90;;;;;;;;;;5201439;22;20039;-65
2023/06/14 08:50:13;;;;;;;0.95;0.80;;;;;;;;;;5201386;22;20206;-65
2023/06/14 08:52:40;;;;;;;0.90;0.90;;;;;;;;;;5209807;22;20031;-65
2023/06/14 08:55:02;;;;;;;0.70;0.70;;;;;;;;;;5201357;22;20070;-65
2023/06/14 08:57:25;;;;;;;5.70;0.80;;;;;;;;;;5201468;22;20041;-65
2023/06/14 08:59:49;;;;;;;0.90;0.90;;;;;;;;;;5201330;22;20061;-65
2023/06/14 09:02:12;;;;;;;0.70;0.70;;;;;;;;;;5201392;22;20026;-65
2023/06/14 09:04:33;;;;;;;0.80;0.80;;;;;;;;;;5201292;22;20266;-65
2023/06/14 09:06:54;;;;;;;0.80;0.80;;;;;;;;;;5201220;22;20271;-65
2023/06/14 09:09:14;;;;;;;0.80;0.80;;;;;;;;;;5201206;22;20030;-65
2023/06/14 09:11:35;;;;;;;1.00;1.00;;;;;;;;;;5201191;22;20069;-64
2023/06/14 09:13:55;;;;;;;1.85;0.90;;;;;;;;;;5201393;22;20022;-64
2023/06/14 09:16:16;;;;;;;1.10;0.80;;;;;;;;;;5201204;22;20073;-65
2023/06/14 09:18:38;;;;;;;1.02;0.80;;;;;;;;;;5178443;22;20031;-64
2023/06/14 09:20:59;;;;;;;0.80;0.80;;;;;;;;;;5201299;22;20106;-64
2023/06/14 09:23:22;;;;;;;1.38;0.90;;;;;;;;;;5201168;22;20076;-65
2023/06/14 09:25:44;;;;;;;0.90;0.90;;;;;;;;;;5201024;22;20112;-64
2023/06/14 09:28:07;;;;;;;3.72;0.82;;;;;;;;;;5178713;22;20027;-64
2023/06/14 09:30:27;;;;;;;0.80;0.80;;;;;;;;;;5201208;22;20046;-65
2023/06/14 09:32:48;;;;;;;1.48;0.80;;;;;;;;;;5201099;22;20026;-65
2023/06/14 09:35:09;;;;;;;0.80;0.80;;;;;;;;;;5201104;22;20062;-65
2023/06/14 09:37:30;;;;;;;0.90;0.90;;;;;;;;;;5201139;22;20038;-65
2023/06/14 09:39:51;;;;;;;1.48;0.70;;;;;;;;;;5200947;22;20086;-65
2023/06/14 09:42:19;;;;;;;0.80;0.80;;;;;;;;;;5201019;22;20058;-65
2023/06/14 09:44:39;;;;;;;1.30;0.80;;;;;;;;;;5200995;22;20246;-65
2023/06/14 09:47:00;;;;;;;0.80;0.80;;;;;;;;;;5200892;22;20034;-65
2023/06/14 09:49:20;;;;;;;0.90;0.90;;;;;;;;;;5200791;22;20038;-66
2023/06/14 09:51:45;;;;;;;0.70;0.70;;;;;;;;;;5201609;22;20026;-66
2023/06/14 09:54:06;;;;;;;0.70;0.70;;;;;;;;;;5202056;22;20022;-66
2023/06/14 09:56:30;;;;;;;1.00;0.80;;;;;;;;;;5202007;22;20022;-65
2023/06/14 09:58:54;;;;;;;0.90;0.90;;;;;;;;;;5202370;22;20026;-66
2023/06/14 10:01:30;;;;;;;1.05;0.70;;;;;;;;;;5202028;22;20038;-66
2023/06/14 10:03:53;;;;;;;0.80;0.80;;;;;;;;;;5202185;22;20027;-65
2023/06/14 10:06:30;;;;;;;0.77;0.77;;;;;;;;;;5201985;22;20076;-66
2023/06/14 10:08:51;;;;;;;2.17;0.80;;;;;;;;;;5201949;22;20075;-65
2023/06/14 10:11:13;;;;;;;1.60;0.80;;;;;;;;;;5201972;22;20062;-65
2023/06/14 10:13:34;;;;;;;1.30;0.75;;;;;;;;;;5202070;22;20034;-65
2023/06/14 10:15:55;;;;;;;1.65;0.80;;;;;;;;;;5202112;22;20076;-65
2023/06/14 10:18:30;;;;;;;0.80;0.80;;;;;;;;;;5201888;22;20214;-65
2023/06/14 10:21:09;;;;;;;0.80;0.80;;;;;;;;;;5202006;22;20026;-65
2023/06/14 10:23:31;;;;;;;1.45;0.95;;;;;;;;;;5201930;22;20022;-65
2023/06/14 10:25:56;;;;;;;1.40;0.80;;;;;;;;;;5201911;22;20054;-65
2023/06/14 10:28:22;;;;;;;0.90;0.90;;;;;;;;;;5201890;22;20026;-65
2023/06/14 10:31:03;;;;;;;0.90;0.90;;;;;;;;;;5201897;22;20069;-65
2023/06/14 10:33:25;;;;;;;0.80;0.80;;;;;;;;;;5201917;22;20253;-64
2023/06/14 10:35:45;;;;;;;0.90;0.90;;;;;;;;;;5201935;22;20034;-64
2023/06/14 10:38:10;;;;;;;0.80;0.80;;;;;;;;;;5201966;22;20061;-64
2023/06/14 10:40:30;;;;;;;0.90;0.90;;;;;;;;;;5201806;22;20026;-65
2023/06/14 10:42:54;;;;;;;0.75;0.75;;;;;;;;;;5202017;22;20046;-64
2023/06/14 10:45:14;;;;;;;1.58;0.90;;;;;;;;;;5202012;22;20328;-65
2023/06/14 10:47:37;;;;;;;0.80;0.80;;;;;;;;;;5201827;22;20214;-65
2023/06/14 10:50:03;;;;;;;1.95;0.80;;;;;;;;;;5201875;22;20026;-64
2023/06/14 10:52:27;;;;;;;1.75;0.90;;;;;;;;;;5201898;22;20061;-64
2023/06/14 10:55:00;;;;;;;0.95;0.90;;;;;;;;;;5201830;22;20026;-65
2023/06/14 10:57:20;;;;;;;0.85;0.80;;;;;;;;;;5201912;22;20091;-65
2023/06/14 10:59:41;;;;;;;0.90;0.90;;;;;;;;;;5201848;22;20023;-65
2023/06/14 11:02:01;;;;;;;0.80;0.80;;;;;;;;;;5201911;22;20026;-65
2023/06/14 11:04:21;;;;;;;1.25;0.80;;;;;;;;;;5201817;22;20022;-65
2023/06/14 11:06:55;;;;;;;0.85;0.85;;;;;;;;;;5201685;22;20018;-65
2023/06/14 11:09:19;;;;;;;0.80;0.80;;;;;;;;;;5201849;22;20254;-65
2023/06/14 11:11:42;;;;;;;0.80;0.80;;;;;;;;;;5201954;22;20222;-65
2023/06/14 11:14:03;;;;;;;0.80;0.80;;;;;;;;;;5201809;22;20050;-65
2023/06/14 11:16:27;;;;;;;1.38;0.80;;;;;;;;;;5201697;22;20034;-65
2023/06/14 11:18:49;;;;;;;0.70;0.70;;;;;;;;;;5201718;22;20325;-66
2023/06/14 11:21:09;;;;;;;0.70;0.70;;;;;;;;;;5201861;22;20059;-65
2023/06/14 11:23:29;;;;;;;0.70;0.70;;;;;;;;;;5201767;22;20030;-65
2023/06/14 11:25:51;;;;;;;0.60;0.60;;;;;;;;;;5201649;22;20026;-65
2023/06/14 11:28:11;;;;;;;1.35;0.70;;;;;;;;;;5201857;22;20027;-65
2023/06/14 11:30:31;;;;;;;0.70;0.70;;;;;;;;;;5201690;22;20061;-65
2023/06/14 11:32:52;;;;;;;0.60;0.60;;;;;;;;;;5201779;22;20218;-65
2023/06/14 11:35:18;;;;;;;0.60;0.60;;;;;;;;;;5201694;22;20068;-65
2023/06/14 11:37:41;;;;;;;0.70;0.70;;;;;;;;;;5201712;22;20202;-65
2023/06/14 11:40:04;;;;;;;0.60;0.60;;;;;;;;;;5201576;22;20249;-65
2023/06/14 11:42:27;;;;;;;0.68;0.68;;;;;;;;;;5201824;22;20022;-65
2023/06/14 11:44:48;;;;;;;0.70;0.70;;;;;;;;;;5201852;22;20080;-66
2023/06/14 11:47:08;;;;;;;0.60;0.60;;;;;;;;;;5201542;22;20341;-66
2023/06/14 11:49:28;;;;;;;0.70;0.70;;;;;;;;;;5201711;22;20022;-66
2023/06/14 11:51:49;;;;;;;1.05;0.70;;;;;;;;;;5201771;22;20099;-65
2023/06/14 11:54:09;;;;;;;1.02;1.02;;;;;;;;;;5201667;22;20062;-65
2023/06/14 11:56:31;;;;;;;1.17;0.63;;;;;;;;;;5201623;22;20218;-66
2023/06/14 11:58:53;;;;;;;0.60;0.60;;;;;;;;;;5201707;22;20027;-66
2023/06/14 12:01:19;;;;;;;0.95;0.90;;;;;;;;;;5201667;22;20257;-66
2023/06/14 12:03:48;;;;;;;0.60;0.60;;;;;;;;;;5201606;22;20027;-66
2023/06/14 12:06:09;;;;;;;0.70;0.70;;;;;;;;;;5201501;22;20023;-66
2023/06/14 12:08:38;;;;;;;0.60;0.60;;;;;;;;;;5201583;22;20168;-66
2023/06/14 12:10:58;;;;;;;0.60;0.60;;;;;;;;;;5201583;22;20043;-66
2023/06/14 12:13:20;;;;;;;2.63;0.60;;;;;;;;;;5201298;22;20022;-66
2023/06/14 12:15:40;;;;;;;0.73;0.73;;;;;;;;;;5201681;22;20131;-66
2023/06/14 12:18:00;;;;;;;1.52;0.60;;;;;;;;;;5201763;22;20329;-66
2023/06/14 12:20:24;;;;;;;2.15;0.60;;;;;;;;;;5201598;22;20050;-65
2023/06/14 12:22:58;;;;;;;0.60;0.60;;;;;;;;;;5201578;22;20215;-65
2023/06/14 12:25:30;;;;;;;1.13;0.60;;;;;;;;;;5201514;22;20043;-65
2023/06/14 12:27:50;;;;;;;0.60;0.60;;;;;;;;;;5201577;22;20050;-65
2023/06/14 12:30:11;;;;;;;0.60;0.60;;;;;;;;;;5201554;22;20114;-65
2023/06/14 12:32:31;;;;;;;0.52;0.52;;;;;;;;;;5201424;22;20376;-65
2023/06/14 12:34:52;;;;;;;0.70;0.70;;;;;;;;;;5201526;22;20023;-65
2023/06/14 12:37:12;;;;;;;1.33;1.33;;;;;;;;;;5201488;22;20022;-65
2023/06/14 12:39:33;;;;;;;1.20;0.70;;;;;;;;;;5201302;22;20034;-65
2023/06/14 12:41:54;;;;;;;0.70;0.70;;;;;;;;;;5201420;22;20042;-64
2023/06/14 12:44:15;;;;;;;1.70;0.70;;;;;;;;;;5201565;22;20070;-64
2023/06/14 12:46:35;;;;;;;0.70;0.70;;;;;;;;;;5201348;22;20030;-63
2023/06/14 12:48:55;;;;;;;0.75;0.75;;;;;;;;;;5201395;22;20103;-62
2023/06/14 12:51:15;;;;;;;0.73;0.73;;;;;;;;;;5201679;22;20356;-61
2023/06/14 12:53:35;;;;;;;0.70;0.70;;;;;;;;;;5201392;22;20022;-61
2023/06/14 12:55:55;;;;;;;0.70;0.70;;;;;;;;;;5201340;22;20246;-61
2023/06/14 12:58:17;;;;;;;1.38;0.70;;;;;;;;;;5201361;22;20433;-61
2023/06/14 13:00:37;;;;;;;0.75;0.75;;;;;;;;;;5201378;22;20060;-61
2023/06/14 13:02:58;;;;;;;0.88;0.80;;;;;;;;;;5201247;22;20026;-61
2023/06/14 13:05:18;;;;;;;0.90;0.90;;;;;;;;;;5201242;22;20328;-61
2023/06/14 13:07:38;;;;;;;0.80;0.80;;;;;;;;;;5201279;22;20051;-60
2023/06/14 13:09:58;;;;;;;1.58;1.48;;;;;;;;;;5201277;22;20022;-60
2023/06/14 13:12:19;;;;;;;1.05;0.80;;;;;;;;;;5201179;22;20110;-60
2023/06/14 13:14:40;;;;;;;2.53;1.00;;;;;;;;;;5201279;22;20023;-60
2023/06/14 13:17:01;;;;;;;0.90;0.90;;;;;;;;;;5201205;22;20061;-61
2023/06/14 13:19:22;;;;;;;1.48;1.00;;;;;;;;;;5201221;22;20066;-60
2023/06/14 13:21:42;;;;;;;0.90;0.90;;;;;;;;;;5201274;22;20022;-60
2023/06/14 13:24:02;;;;;;;1.00;1.00;;;;;;;;;;5201142;22;20026;-60
2023/06/14 13:26:22;;;;;;;1.60;1.45;;;;;;;;;;5201498;22;20023;-60
2023/06/14 13:28:42;;;;;;;3.50;1.70;;;;;;;;;;5202177;22;20045;-60
2023/06/14 13:31:03;;;;;;;0.90;0.90;;;;;;;;;;5202199;22;20057;-60
2023/06/14 13:33:24;;;;;;;2.13;1.00;;;;;;;;;;5202063;22;20342;-60
2023/06/14 13:35:44;;;;;;;0.90;0.90;;;;;;;;;;5202181;22;20023;-60
2023/06/14 13:38:04;;;;;;;3.10;1.00;;;;;;;;;;5202137;22;20034;-60
2023/06/14 13:40:25;;;;;;;1.40;1.00;;;;;;;;;;5202052;22;20072;-60
2023/06/14 13:42:45;;;;;;;1.00;1.00;;;;;;;;;;5202174;22;20026;-60
2023/06/14 13:45:05;;;;;;;0.90;0.90;;;;;;;;;;5202239;22;20023;-60
2023/06/14 13:47:26;;;;;;;1.10;1.00;;;;;;;;;;5202017;22;20053;-60
2023/06/14 13:49:47;;;;;;;2.60;0.90;;;;;;;;;;5202127;22;20022;-60
2023/06/14 13:52:07;;;;;;;1.15;1.00;;;;;;;;;;5202152;22;20380;-61
2023/06/14 13:54:28;;;;;;;1.45;1.00;;;;;;;;;;5201983;22;20026;-62
2023/06/14 13:56:48;;;;;;;0.93;0.93;;;;;;;;;;5202115;22;20027;-63
2023/06/14 13:59:09;;;;;;;1.50;1.50;;;;;;;;;;5202060;22;20047;-63
2023/06/14 14:01:30;;;;;;;1.35;1.13;;;;;;;;;;5202369;22;20092;-64
2023/06/14 14:03:50;;;;;;;1.00;1.00;;;;;;;;;;5201991;22;20030;-64
2023/06/14 14:06:10;;;;;;;2.08;0.93;;;;;;;;;;5202053;22;20027;-64
2023/06/14 14:08:31;;;;;;;0.90;0.90;;;;;;;;;;5202056;22;20095;-63